createdAt,value
2018-12-29T00:01:03.488Z,-2.88
2018-12-29T00:03:31.663Z,-2.91
2018-12-29T00:06:19.439Z,-2.98
2018-12-29T00:08:48.620Z,-2.97
2018-12-29T00:11:16.706Z,-3.01
2018-12-29T00:13:44.886Z,-3.02
2018-12-29T00:16:13.062Z,-2.96
2018-12-29T00:18:41.233Z,-2.94
2018-12-29T00:21:09.361Z,-2.91
2018-12-29T00:23:37.679Z,-2.94
2018-12-29T00:26:05.827Z,-2.90
2018-12-29T00:28:33.932Z,-2.87
2018-12-29T00:31:02.374Z,-2.82
2018-12-29T00:33:30.754Z,-2.79
2018-12-29T00:35:58.859Z,-2.83
2018-12-29T00:38:27.336Z,-2.78
2018-12-29T00:40:55.993Z,-2.77
2018-12-29T00:43:24.047Z,-2.72
2018-12-29T00:45:52.653Z,-2.71
2018-12-29T00:48:20.762Z,-2.80
2018-12-29T00:50:48.897Z,-2.86
2018-12-29T00:53:16.977Z,-2.73
2018-12-29T00:55:45.245Z,-2.71
2018-12-29T00:58:13.874Z,-2.70
2018-12-29T01:00:40.909Z,-2.82
2018-12-29T01:03:08.425Z,-2.89
2018-12-29T01:05:37.050Z,-2.86
2018-12-29T01:08:05.329Z,-2.83
2018-12-29T01:10:33.516Z,-2.68
2018-12-29T01:13:01.945Z,-2.66
2018-12-29T01:15:30.448Z,-2.66
2018-12-29T01:17:58.666Z,-2.70
2018-12-29T01:20:26.149Z,-2.69
2018-12-29T01:22:54.414Z,-2.72
2018-12-29T01:25:22.694Z,-2.80
2018-12-29T01:27:51.181Z,-2.89
2018-12-29T01:30:19.359Z,-2.91
2018-12-29T01:32:46.794Z,-2.83
2018-12-29T01:35:14.912Z,-2.98
2018-12-29T01:37:42.786Z,-3.00
2018-12-29T01:40:10.959Z,-2.92
2018-12-29T01:42:39.243Z,-2.74
2018-12-29T01:45:07.519Z,-2.71
2018-12-29T01:47:36.100Z,-2.88
2018-12-29T01:50:04.199Z,-2.90
2018-12-29T01:52:32.466Z,-2.95
2018-12-29T01:54:59.871Z,-2.96
2018-12-29T01:57:28.479Z,-2.93
2018-12-29T01:59:56.693Z,-3.04
2018-12-29T02:02:24.582Z,-3.11
2018-12-29T02:04:52.738Z,-3.10
2018-12-29T02:07:20.850Z,-3.16
2018-12-29T02:12:23.854Z,-3.11
2018-12-29T02:14:51.715Z,-3.15
2018-12-29T02:17:19.499Z,-3.08
2018-12-29T02:19:47.968Z,-2.96
2018-12-29T02:22:15.386Z,-2.93
2018-12-29T02:24:44.123Z,-2.96
2018-12-29T02:27:11.888Z,-2.90
2018-12-29T02:29:40.073Z,-2.79
2018-12-29T02:32:07.510Z,-2.83
2018-12-29T02:34:36.151Z,-2.86
2018-12-29T02:37:04.420Z,-2.83
2018-12-29T02:39:33.014Z,-2.88
2018-12-29T02:42:01.182Z,-2.90
2018-12-29T02:44:29.686Z,-2.97
2018-12-29T02:46:58.195Z,-2.91
2018-12-29T02:49:26.741Z,-2.93
2018-12-29T02:51:54.919Z,-2.91
2018-12-29T02:54:22.704Z,-3.06
2018-12-29T02:56:51.363Z,-3.04
2018-12-29T02:59:19.813Z,-3.07
2018-12-29T03:01:48.158Z,-3.11
2018-12-29T03:04:16.880Z,-3.09
2018-12-29T03:06:45.384Z,-3.15
2018-12-29T03:09:13.966Z,-3.14
2018-12-29T03:11:42.396Z,-3.16
2018-12-29T03:14:09.768Z,-3.25
2018-12-29T03:16:37.948Z,-3.21
2018-12-29T03:19:06.120Z,-3.24
2018-12-29T03:21:34.409Z,-3.18
2018-12-29T03:24:02.588Z,-3.17
2018-12-29T03:26:30.655Z,-3.14
2018-12-29T03:28:59.245Z,-3.04
2018-12-29T03:31:27.847Z,-3.06
2018-12-29T03:33:56.520Z,-3.10
2018-12-29T03:36:25.066Z,-3.11
2018-12-29T03:38:53.481Z,-3.15
2018-12-29T03:41:21.326Z,-3.21
2018-12-29T03:43:49.654Z,-3.23
2018-12-29T03:46:17.526Z,-3.21
2018-12-29T03:48:45.312Z,-3.29
2018-12-29T03:51:13.383Z,-3.23
2018-12-29T03:53:41.638Z,-3.15
2018-12-29T03:56:09.994Z,-2.95
2018-12-29T03:58:38.537Z,-2.90
2018-12-29T04:01:06.784Z,-2.84
2018-12-29T04:03:34.586Z,-2.85
2018-12-29T04:06:02.766Z,-2.88
2018-12-29T04:08:31.404Z,-2.90
2018-12-29T04:10:59.569Z,-2.88
2018-12-29T04:13:27.299Z,-2.93
2018-12-29T04:15:58.303Z,-2.90
2018-12-29T04:18:25.718Z,-2.91
2018-12-29T04:20:53.534Z,-2.82
2018-12-29T04:23:22.272Z,-2.89
2018-12-29T04:25:50.959Z,-2.93
2018-12-29T04:28:19.184Z,-2.89
2018-12-29T04:30:47.045Z,-2.81
2018-12-29T04:33:15.230Z,-2.81
2018-12-29T04:35:43.880Z,-2.78
2018-12-29T04:38:12.520Z,-2.80
2018-12-29T04:40:40.817Z,-2.75
2018-12-29T04:43:08.926Z,-2.76
2018-12-29T04:45:36.830Z,-2.77
2018-12-29T04:48:04.855Z,-2.79
2018-12-29T04:50:33.071Z,-2.83
2018-12-29T04:53:19.864Z,-2.77
2018-12-29T04:55:48.365Z,-2.79
2018-12-29T04:58:16.295Z,-2.78
2018-12-29T05:00:44.907Z,-2.79
2018-12-29T05:03:13.624Z,-2.80
2018-12-29T05:05:42.200Z,-2.82
2018-12-29T05:08:10.499Z,-2.80
2018-12-29T05:10:38.914Z,-2.92
2018-12-29T05:13:07.154Z,-2.92
2018-12-29T05:15:34.917Z,-2.98
2018-12-29T05:18:03.524Z,-3.03
2018-12-29T05:20:31.698Z,-3.00
2018-12-29T05:22:59.529Z,-2.83
2018-12-29T05:25:27.629Z,-2.90
2018-12-29T05:27:56.286Z,-2.94
2018-12-29T05:30:24.074Z,-2.88
2018-12-29T05:32:52.465Z,-2.81
2018-12-29T05:35:20.889Z,-2.82
2018-12-29T05:37:48.795Z,-2.91
2018-12-29T05:40:16.212Z,-2.84
2018-12-29T05:42:44.085Z,-2.89
2018-12-29T05:45:12.189Z,-2.77
2018-12-29T05:47:40.345Z,-2.78
2018-12-29T05:50:08.220Z,-2.74
2018-12-29T05:52:36.471Z,-2.78
2018-12-29T05:55:04.262Z,-2.78
2018-12-29T05:57:32.772Z,-2.80
2018-12-29T06:00:00.620Z,-2.78
2018-12-29T06:02:28.966Z,-2.74
2018-12-29T06:04:57.082Z,-2.78
2018-12-29T06:07:25.777Z,-2.75
2018-12-29T06:09:53.905Z,-2.80
2018-12-29T06:12:21.723Z,-2.68
2018-12-29T06:14:49.504Z,-2.76
2018-12-29T06:17:17.772Z,-2.78
2018-12-29T06:19:45.980Z,-2.71
2018-12-29T06:22:14.179Z,-2.61
2018-12-29T06:24:43.342Z,-2.63
2018-12-29T06:27:11.521Z,-2.65
2018-12-29T06:29:39.497Z,-2.60
2018-12-29T06:32:08.004Z,-2.65
2018-12-29T06:34:35.951Z,-2.63
2018-12-29T06:37:03.785Z,-2.69
2018-12-29T06:39:31.660Z,-2.70
2018-12-29T06:42:00.187Z,-2.79
2018-12-29T06:44:28.367Z,-2.80
2018-12-29T06:46:56.955Z,-2.70
2018-12-29T06:49:25.521Z,-2.79
2018-12-29T06:51:53.750Z,-2.89
2018-12-29T06:54:21.486Z,-2.95
2018-12-29T06:56:49.986Z,-2.92
2018-12-29T06:59:18.029Z,-2.96
2018-12-29T07:01:46.316Z,-3.02
2018-12-29T07:04:14.530Z,-3.03
2018-12-29T07:06:42.678Z,-3.06
2018-12-29T07:09:10.922Z,-3.10
2018-12-29T07:11:39.315Z,-3.19
2018-12-29T07:14:07.960Z,-3.21
2018-12-29T07:16:42.258Z,-3.19
2018-12-29T07:19:06.100Z,-3.25
2018-12-29T07:21:34.196Z,-3.21
2018-12-29T07:24:02.408Z,-3.23
2018-12-29T07:26:30.603Z,-3.22
2018-12-29T07:28:59.264Z,-3.26
2018-12-29T07:31:27.806Z,-3.23
2018-12-29T07:33:56.189Z,-3.27
2018-12-29T07:36:24.786Z,-3.27
2018-12-29T07:38:53.285Z,-3.12
2018-12-29T07:41:21.835Z,-3.15
2018-12-29T07:43:50.015Z,-3.21
2018-12-29T07:46:17.702Z,-3.03
2018-12-29T07:48:46.095Z,-3.09
2018-12-29T07:51:13.426Z,-3.09
2018-12-29T07:53:40.932Z,-3.15
2018-12-29T07:56:09.260Z,-3.14
2018-12-29T07:58:36.750Z,-3.18
2018-12-29T08:01:05.030Z,-3.19
2018-12-29T08:03:33.301Z,-3.21
2018-12-29T08:06:01.870Z,-3.15
2018-12-29T08:08:30.067Z,-3.12
2018-12-29T08:10:58.266Z,-3.11
2018-12-29T08:13:26.141Z,-3.02
2018-12-29T08:15:53.927Z,-3.03
2018-12-29T08:18:22.575Z,-2.97
2018-12-29T08:20:50.349Z,-2.74
2018-12-29T08:23:18.524Z,-2.67
2018-12-29T08:25:47.188Z,-2.84
2018-12-29T08:28:15.315Z,-2.91
2018-12-29T08:30:43.548Z,-2.74
2018-12-29T08:33:11.761Z,-2.75
2018-12-29T08:35:40.215Z,-2.73
2018-12-29T08:38:08.506Z,-2.63
2018-12-29T08:40:36.915Z,-2.47
2018-12-29T08:43:05.174Z,-2.47
2018-12-29T08:45:51.987Z,-2.46
2018-12-29T08:48:20.569Z,-2.43
2018-12-29T08:50:48.791Z,-2.24
2018-12-29T08:53:16.840Z,-2.11
2018-12-29T08:55:45.487Z,-2.06
2018-12-29T08:58:14.174Z,-2.07
2018-12-29T09:00:42.895Z,-2.02
2018-12-29T09:03:11.415Z,-1.92
2018-12-29T09:05:39.358Z,-1.78
2018-12-29T09:08:07.577Z,-1.71
2018-12-29T09:10:35.803Z,-1.55
2018-12-29T09:13:04.435Z,-1.58
2018-12-29T09:15:32.185Z,-1.69
2018-12-29T09:18:00.701Z,-1.67
2018-12-29T09:20:28.400Z,-1.58
2018-12-29T09:22:56.180Z,-1.59
2018-12-29T09:25:24.836Z,-1.58
2018-12-29T09:27:53.057Z,-1.58
2018-12-29T09:30:20.812Z,-1.59
2018-12-29T09:32:49.391Z,-1.54
2018-12-29T09:35:17.576Z,-1.47
2018-12-29T09:37:46.213Z,-1.44
2018-12-29T09:40:14.355Z,-1.28
2018-12-29T09:42:43.074Z,-1.38
2018-12-29T09:45:11.593Z,-1.45
2018-12-29T09:47:39.754Z,-1.45
2018-12-29T09:50:07.946Z,-1.47
2018-12-29T09:52:36.160Z,-1.24
2018-12-29T09:55:03.865Z,-1.29
2018-12-29T09:57:32.221Z,-1.27
2018-12-29T10:00:00.405Z,-1.19
2018-12-29T10:02:29.024Z,-1.19
2018-12-29T10:04:57.675Z,-1.13
2018-12-29T10:07:25.551Z,-1.09
2018-12-29T10:09:53.766Z,-0.97
2018-12-29T10:12:21.446Z,-0.79
2018-12-29T10:14:50.083Z,-0.65
2018-12-29T10:17:18.139Z,-0.53
2018-12-29T10:19:46.809Z,-0.29
2018-12-29T10:22:15.355Z,-0.10
2018-12-29T10:24:43.826Z,-0.06
2018-12-29T10:27:11.990Z,0.07
2018-12-29T10:29:40.689Z,-0.05
2018-12-29T10:32:09.316Z,-0.15
2018-12-29T10:34:37.888Z,-0.24
2018-12-29T10:37:05.752Z,-0.06
2018-12-29T10:39:33.748Z,-0.07
2018-12-29T10:42:01.497Z,0.17
2018-12-29T10:44:30.190Z,0.28
2018-12-29T10:46:58.126Z,0.31
2018-12-29T10:49:26.242Z,0.36
2018-12-29T10:51:54.849Z,0.45
2018-12-29T10:54:23.412Z,0.62
2018-12-29T10:56:52.135Z,0.76
2018-12-29T10:59:20.605Z,0.99
2018-12-29T11:01:48.851Z,1.22
2018-12-29T11:04:17.458Z,1.26
2018-12-29T11:06:46.172Z,1.21
2018-12-29T11:09:13.249Z,1.14
2018-12-29T11:11:41.131Z,1.12
2018-12-29T11:14:09.786Z,1.12
2018-12-29T11:16:41.207Z,1.11
2018-12-29T11:19:09.282Z,1.25
2018-12-29T11:21:37.061Z,1.42
2018-12-29T11:24:05.139Z,1.72
2018-12-29T11:26:33.286Z,1.82
2018-12-29T11:29:01.979Z,1.91
2018-12-29T11:31:30.273Z,1.89
2018-12-29T11:33:58.532Z,1.92
2018-12-29T11:36:26.672Z,2.03
2018-12-29T11:38:55.392Z,2.09
2018-12-29T11:41:24.119Z,2.14
2018-12-29T11:43:52.290Z,1.95
2018-12-29T11:46:20.781Z,1.92
2018-12-29T11:48:48.677Z,2.12
2018-12-29T11:51:18.976Z,2.19
2018-12-29T11:53:46.766Z,2.29
2018-12-29T11:56:15.405Z,2.36
2018-12-29T11:58:43.761Z,2.32
2018-12-29T12:01:11.931Z,2.18
2018-12-29T12:03:40.166Z,2.21
2018-12-29T12:06:07.962Z,2.41
2018-12-29T12:08:36.456Z,2.35
2018-12-29T12:11:04.707Z,2.44
2018-12-29T12:13:32.570Z,2.46
2018-12-29T12:16:01.047Z,2.66
2018-12-29T12:18:29.565Z,2.78
2018-12-29T12:20:57.452Z,2.70
2018-12-29T12:23:25.618Z,2.66
2018-12-29T12:25:54.253Z,2.51
2018-12-29T12:28:22.675Z,2.40
2018-12-29T12:30:50.770Z,2.40
2018-12-29T12:33:19.219Z,2.36
2018-12-29T12:35:47.537Z,2.45
2018-12-29T12:38:17.442Z,2.40
2018-12-29T12:40:45.256Z,2.36
2018-12-29T12:43:33.061Z,2.40
2018-12-29T12:46:03.642Z,2.45
2018-12-29T12:48:31.883Z,2.43
2018-12-29T12:51:00.590Z,2.38
2018-12-29T12:53:29.035Z,2.28
2018-12-29T12:55:57.315Z,2.32
2018-12-29T12:58:25.249Z,2.40
2018-12-29T13:00:53.807Z,2.41
2018-12-29T13:03:22.599Z,2.47
2018-12-29T13:05:52.677Z,2.50
2018-12-29T13:08:20.893Z,2.44
2018-12-29T13:10:49.483Z,2.41
2018-12-29T13:13:17.366Z,2.32
2018-12-29T13:15:46.051Z,2.31
2018-12-29T13:18:14.706Z,2.28
2018-12-29T13:20:43.364Z,2.19
2018-12-29T13:23:11.978Z,2.21
2018-12-29T13:25:40.076Z,2.09
2018-12-29T13:28:08.643Z,2.02
2018-12-29T13:30:37.530Z,2.00
2018-12-29T13:33:06.073Z,1.97
2018-12-29T13:35:34.266Z,1.98
2018-12-29T13:38:02.097Z,2.05
2018-12-29T13:40:29.617Z,2.09
2018-12-29T13:42:59.925Z,1.96
2018-12-29T13:45:28.451Z,1.91
2018-12-29T13:47:56.976Z,2.03
2018-12-29T13:50:25.576Z,1.94
2018-12-29T13:52:54.265Z,1.84
2018-12-29T13:55:22.557Z,1.95
2018-12-29T13:57:50.672Z,1.89
2018-12-29T14:00:19.017Z,1.84
2018-12-29T14:02:46.888Z,1.79
2018-12-29T14:05:15.294Z,1.84
2018-12-29T14:07:43.655Z,1.79
2018-12-29T14:10:30.508Z,1.79
2018-12-29T14:12:58.371Z,1.85
2018-12-29T14:15:26.456Z,1.69
2018-12-29T14:17:56.129Z,1.66
2018-12-29T14:20:24.310Z,1.66
2018-12-29T14:22:52.122Z,1.68
2018-12-29T14:25:20.766Z,1.68
2018-12-29T14:27:48.850Z,1.71
2018-12-29T14:30:17.441Z,1.71
2018-12-29T14:32:45.595Z,1.69
2018-12-29T14:35:14.111Z,1.78
2018-12-29T14:37:42.341Z,1.81
2018-12-29T14:40:10.816Z,1.74
2018-12-29T14:42:39.422Z,1.64
2018-12-29T14:45:07.749Z,1.64
2018-12-29T14:47:35.506Z,1.53
2018-12-29T14:50:04.521Z,1.40
2018-12-29T14:52:32.780Z,1.30
2018-12-29T14:55:01.362Z,1.25
2018-12-29T14:57:29.303Z,1.18
2018-12-29T14:59:57.839Z,1.10
2018-12-29T15:02:26.023Z,1.09
2018-12-29T15:04:54.306Z,1.14
2018-12-29T15:07:22.988Z,1.04
2018-12-29T15:09:51.187Z,0.99
2018-12-29T15:12:19.024Z,0.99
2018-12-29T15:15:05.856Z,0.99
2018-12-29T15:17:34.023Z,0.93
2018-12-29T15:20:44.491Z,0.91
2018-12-29T15:23:12.282Z,1.00
2018-12-29T15:25:40.645Z,0.86
2018-12-29T15:28:09.126Z,0.76
2018-12-29T15:30:37.397Z,0.72
2018-12-29T15:33:05.678Z,0.62
2018-12-29T15:35:34.383Z,0.49
2018-12-29T15:38:02.961Z,0.51
2018-12-29T15:40:31.018Z,0.39
2018-12-29T15:42:58.809Z,0.29
2018-12-29T15:45:28.531Z,0.26
2018-12-29T15:47:57.043Z,0.17
2018-12-29T15:50:25.186Z,0.14
2018-12-29T15:52:55.720Z,0.12
2018-12-29T15:55:23.802Z,0.13
2018-12-29T15:57:52.483Z,0.08
2018-12-29T16:00:20.742Z,0.08
2018-12-29T16:02:49.255Z,0.05
2018-12-29T16:05:17.120Z,0.08
2018-12-29T16:07:47.686Z,0.07
2018-12-29T16:10:16.252Z,0.02
2018-12-29T16:12:44.545Z,-0.15
2018-12-29T16:15:13.229Z,-0.32
2018-12-29T16:17:41.400Z,-0.43
2018-12-29T16:20:09.499Z,-0.42
2018-12-29T16:22:37.567Z,-0.48
2018-12-29T16:25:06.307Z,-0.54
2018-12-29T16:27:34.851Z,-0.61
2018-12-29T16:30:03.135Z,-0.69
2018-12-29T16:32:31.506Z,-0.72
2018-12-29T16:35:00.005Z,-0.76
2018-12-29T16:37:27.071Z,-0.80
2018-12-29T16:39:55.239Z,-0.80
2018-12-29T16:42:25.663Z,-0.87
2018-12-29T16:44:54.194Z,-0.96
2018-12-29T16:47:22.807Z,-1.01
2018-12-29T16:49:51.016Z,-1.00
2018-12-29T16:52:18.693Z,-1.05
2018-12-29T16:54:47.197Z,-1.07
2018-12-29T16:57:15.544Z,-1.11
2018-12-29T16:59:43.846Z,-0.98
2018-12-29T17:02:14.418Z,-0.96
2018-12-29T17:04:41.920Z,-0.97
2018-12-29T17:07:09.783Z,-1.04
2018-12-29T17:09:37.573Z,-1.03
2018-12-29T17:12:05.963Z,-1.08
2018-12-29T17:14:34.608Z,-1.05
2018-12-29T17:17:03.103Z,-0.98
2018-12-29T17:19:32.877Z,-0.84
2018-12-29T17:22:01.258Z,-0.75
2018-12-29T17:24:29.434Z,-0.63
2018-12-29T17:26:57.305Z,-0.62
2018-12-29T17:29:26.111Z,-0.58
2018-12-29T17:31:54.687Z,-0.56
2018-12-29T17:34:23.179Z,-0.53
2018-12-29T17:36:53.354Z,-0.43
2018-12-29T17:39:21.965Z,-0.49
2018-12-29T17:41:50.344Z,-0.44
2018-12-29T17:44:18.851Z,-0.42
2018-12-29T17:46:46.608Z,-0.34
2018-12-29T17:49:22.502Z,-0.34
2018-12-29T17:51:44.835Z,-0.33
2018-12-29T17:54:12.698Z,-0.30
2018-12-29T17:56:40.802Z,-0.28
2018-12-29T17:59:09.772Z,-0.30
2018-12-29T18:01:37.962Z,-0.23
2018-12-29T18:04:06.338Z,-0.25
2018-12-29T18:06:34.224Z,-0.29
2018-12-29T18:11:59.511Z,-0.32
2018-12-29T18:14:27.887Z,-0.34
2018-12-29T18:16:55.734Z,-0.43
2018-12-29T18:19:30.486Z,-0.45
2018-12-29T18:21:54.712Z,-0.51
2018-12-29T18:24:23.369Z,-0.45
2018-12-29T18:26:51.761Z,-0.41
2018-12-29T18:29:19.950Z,-0.43
2018-12-29T18:31:50.577Z,-0.55
2018-12-29T18:34:26.029Z,-0.43
2018-12-29T18:36:54.713Z,-0.40
2018-12-29T18:39:23.361Z,-0.40
2018-12-29T18:41:52.106Z,-0.53
2018-12-29T18:44:20.664Z,-0.48
2018-12-29T18:46:49.269Z,-0.37
2018-12-29T18:49:17.641Z,-0.33
2018-12-29T18:51:45.907Z,-0.35
2018-12-29T18:54:13.909Z,-0.32
2018-12-29T18:56:45.578Z,-0.34
2018-12-29T18:59:13.142Z,-0.27
2018-12-29T19:01:40.932Z,-0.21
2018-12-29T19:04:20.719Z,-0.25
2018-12-29T19:06:49.353Z,-0.30
2018-12-29T19:09:17.890Z,-0.38
2018-12-29T19:11:46.230Z,-0.38
2018-12-29T19:14:15.106Z,-0.31
2018-12-29T19:16:43.289Z,-0.29
2018-12-29T19:19:12.127Z,-0.36
2018-12-29T19:21:40.591Z,-0.25
2018-12-29T19:24:09.173Z,-0.31
2018-12-29T19:26:38.303Z,-0.32
2018-12-29T19:29:06.092Z,-0.35
2018-12-29T19:31:34.392Z,-0.24
2018-12-29T19:34:04.477Z,-0.17
2018-12-29T19:36:33.746Z,-0.13
2018-12-29T19:42:17.361Z,-0.21
2018-12-29T19:44:45.363Z,-0.15
2018-12-29T19:47:14.821Z,-0.06
2018-12-29T19:50:02.501Z,-0.04
2018-12-29T19:52:31.102Z,-0.05
2018-12-29T19:55:00.170Z,-0.12
2018-12-29T19:57:28.506Z,-0.16
2018-12-29T19:59:57.246Z,-0.20
2018-12-29T20:02:25.687Z,-0.22
2018-12-29T20:04:55.664Z,-0.30
2018-12-29T20:07:45.423Z,-0.33
2018-12-29T20:10:13.777Z,-0.35
2018-12-29T20:12:42.528Z,-0.34
2018-12-29T20:15:10.854Z,-0.42
2018-12-29T20:17:39.310Z,-0.42
2018-12-29T20:20:07.960Z,-0.44
2018-12-29T20:22:35.933Z,-0.51
2018-12-29T20:25:05.798Z,-0.47
2018-12-29T20:27:34.237Z,-0.48
2018-12-29T20:30:44.372Z,-0.53
2018-12-29T20:33:12.644Z,-0.52
2018-12-29T20:36:01.395Z,-0.55
2018-12-29T20:42:18.289Z,-0.38
2018-12-29T20:45:06.348Z,-0.41
2018-12-29T20:50:44.599Z,-0.33
2018-12-29T20:53:12.238Z,-0.35
2018-12-29T20:56:00.751Z,-0.39
2018-12-29T20:58:29.917Z,-0.43
2018-12-29T21:00:58.791Z,-0.44
2018-12-29T21:03:46.924Z,-0.44
2018-12-29T21:06:15.391Z,-0.40
2018-12-29T21:08:45.125Z,-0.39
2018-12-29T21:14:13.127Z,-0.41
2018-12-29T21:17:00.989Z,-0.36
2018-12-29T21:19:30.368Z,-0.38
2018-12-29T21:22:00.065Z,-0.35
2018-12-29T21:24:28.867Z,-0.29
2018-12-29T21:26:57.886Z,-0.33
2018-12-29T21:29:26.805Z,-0.30
2018-12-29T21:31:56.032Z,-0.32
2018-12-29T21:35:04.608Z,-0.30
2018-12-29T21:37:52.821Z,-0.33
2018-12-29T21:40:21.190Z,-0.22
2018-12-29T21:45:45.364Z,-0.31
2018-12-29T21:48:13.883Z,-0.26
2018-12-29T21:50:41.808Z,-0.18
2018-12-29T21:53:11.293Z,-0.17
2018-12-29T21:55:58.234Z,-0.21
2018-12-29T21:58:26.837Z,-0.14
2018-12-29T22:00:55.673Z,-0.15
2018-12-29T22:03:23.393Z,-0.10
2018-12-29T22:06:04.719Z,0.11
2018-12-29T22:08:33.473Z,0.19
2018-12-29T22:11:02.079Z,0.35
2018-12-29T22:13:30.745Z,0.39
2018-12-29T22:15:58.919Z,0.44
2018-12-29T22:18:27.229Z,0.51
2018-12-29T22:20:55.758Z,0.54
2018-12-29T22:26:20.509Z,0.70
2018-12-29T22:28:48.283Z,0.70
2018-12-29T22:31:16.650Z,0.70
2018-12-29T22:33:45.108Z,0.76
2018-12-29T22:36:13.622Z,0.79
2018-12-29T22:38:42.164Z,0.79
2018-12-29T22:41:10.814Z,0.78
2018-12-29T22:43:38.732Z,0.78
2018-12-29T22:46:06.895Z,0.77
2018-12-29T22:48:36.579Z,0.78
2018-12-29T22:51:04.739Z,0.74
2018-12-29T22:53:33.533Z,0.77
2018-12-29T22:56:01.417Z,0.81
2018-12-29T22:58:29.866Z,0.77
2018-12-29T23:00:58.087Z,0.79
2018-12-29T23:03:26.589Z,0.77
2018-12-29T23:05:55.039Z,0.83
2018-12-29T23:08:23.267Z,0.83
2018-12-29T23:10:52.378Z,0.85
2018-12-29T23:13:20.634Z,0.90
2018-12-29T23:15:49.112Z,0.91
2018-12-29T23:18:17.204Z,0.90
2018-12-29T23:20:49.082Z,0.92
2018-12-29T23:23:16.193Z,0.89
2018-12-29T23:25:46.970Z,0.91
2018-12-29T23:28:15.557Z,0.91
2018-12-29T23:30:43.608Z,0.92
2018-12-29T23:33:11.447Z,0.91
2018-12-29T23:35:40.053Z,0.89
2018-12-29T23:38:08.567Z,0.93
2018-12-29T23:40:36.809Z,0.98
2018-12-29T23:43:05.377Z,1.02
2018-12-29T23:45:34.165Z,1.03
2018-12-29T23:48:02.895Z,1.04
2018-12-29T23:50:31.316Z,1.05
2018-12-29T23:52:59.709Z,1.03
2018-12-29T23:55:30.319Z,1.05
2018-12-29T23:57:58.474Z,1.11
